createdAt,value
2018-03-28T00:00:28.228Z,995.22
2018-03-28T00:01:08.701Z,995.2
2018-03-28T00:01:49.170Z,995.24
2018-03-28T00:02:29.651Z,995.16
2018-03-28T00:03:10.145Z,995.21
2018-03-28T00:03:50.616Z,995.22
2018-03-28T00:04:31.091Z,995.18
2018-03-28T00:05:11.589Z,995.18
2018-03-28T00:05:52.094Z,995.16
2018-03-28T00:06:32.576Z,995.12
2018-03-28T00:07:13.075Z,995.16
2018-03-28T00:07:53.573Z,995.14
2018-03-28T00:08:34.071Z,995.12
2018-03-28T00:09:14.598Z,995.16
2018-03-28T00:09:55.035Z,995.11
2018-03-28T00:10:35.530Z,995.1
2018-03-28T00:11:16.084Z,995.06
2018-03-28T00:11:56.559Z,995.11
2018-03-28T00:12:37.051Z,995.09
2018-03-28T00:13:17.525Z,995.1
2018-03-28T00:13:58.027Z,995.07
2018-03-28T00:14:38.498Z,995.06
2018-03-28T00:15:19.008Z,995.08
2018-03-28T00:15:59.544Z,995.09
2018-03-28T00:16:40.017Z,995.09
2018-03-28T00:17:20.523Z,995.15
2018-03-28T00:18:01.030Z,995.07
2018-03-28T00:18:41.537Z,995.09
2018-03-28T00:19:22.064Z,995.13
2018-03-28T00:20:02.559Z,995.04
2018-03-28T00:20:43.053Z,995.05
2018-03-28T00:21:23.536Z,995.09
2018-03-28T00:22:04.027Z,995.12
2018-03-28T00:22:44.548Z,995.15
2018-03-28T00:23:25.088Z,995.1
2018-03-28T00:24:05.612Z,995.08
2018-03-28T00:24:46.071Z,995.14
2018-03-28T00:25:26.538Z,995.06
2018-03-28T00:26:07.043Z,995.03
2018-03-28T00:26:47.534Z,995.03
2018-03-28T00:27:28.087Z,995.09
2018-03-28T00:28:08.514Z,995.08
2018-03-28T00:28:49.033Z,995.08
2018-03-28T00:29:29.540Z,995.12
2018-03-28T00:30:10.030Z,995.06
2018-03-28T00:30:50.537Z,995.08
2018-03-28T00:31:31.047Z,995.06
2018-03-28T00:32:11.508Z,995.1
2018-03-28T00:32:51.988Z,995.07
2018-03-28T00:33:32.506Z,995.02
2018-03-28T00:34:13.010Z,995.04
2018-03-28T00:34:53.539Z,995.02
2018-03-28T00:35:34.020Z,995.04
2018-03-28T00:36:14.513Z,994.98
2018-03-28T00:36:55.003Z,994.98
2018-03-28T00:37:35.506Z,995.02
2018-03-28T00:38:15.965Z,994.99
2018-03-28T00:38:56.484Z,994.99
2018-03-28T00:39:36.989Z,994.99
2018-03-28T00:40:17.472Z,995.02
2018-03-28T00:40:57.950Z,994.99
2018-03-28T00:41:38.456Z,994.96
2018-03-28T00:42:18.951Z,994.97
2018-03-28T00:42:59.412Z,994.96
2018-03-28T00:43:39.874Z,995.02
2018-03-28T00:44:20.406Z,995
2018-03-28T00:45:00.887Z,994.98
2018-03-28T00:45:41.368Z,994.96
2018-03-28T00:46:21.846Z,994.96
2018-03-28T00:47:02.327Z,994.97
2018-03-28T00:47:42.822Z,994.93
2018-03-28T00:48:23.261Z,994.94
2018-03-28T00:49:03.764Z,994.92
2018-03-28T00:49:44.280Z,994.94
2018-03-28T00:50:24.810Z,994.93
2018-03-28T00:51:05.287Z,994.94
2018-03-28T00:51:45.768Z,994.96
2018-03-28T00:52:26.256Z,994.95
2018-03-28T00:53:06.712Z,994.94
2018-03-28T00:53:47.217Z,994.97
2018-03-28T00:54:27.726Z,994.99
2018-03-28T00:55:08.197Z,994.93
2018-03-28T00:55:48.731Z,994.96
2018-03-28T00:56:29.211Z,994.97
2018-03-28T00:57:09.724Z,995
2018-03-28T00:57:50.224Z,994.96
2018-03-28T00:58:30.754Z,995
2018-03-28T00:59:11.298Z,994.96
2018-03-28T00:59:51.703Z,994.99
2018-03-28T01:00:32.163Z,994.98
2018-03-28T01:01:12.650Z,994.94
2018-03-28T01:01:53.160Z,994.98
2018-03-28T01:02:33.636Z,994.92
2018-03-28T01:03:14.109Z,994.93
2018-03-28T01:03:54.649Z,994.9
2018-03-28T01:04:35.127Z,994.92
2018-03-28T01:05:15.619Z,994.88
2018-03-28T01:05:56.122Z,994.84
2018-03-28T01:06:36.608Z,994.92
2018-03-28T01:07:17.049Z,994.92
2018-03-28T01:07:57.540Z,994.87
2018-03-28T01:08:38.051Z,994.93
2018-03-28T01:09:18.530Z,994.9
2018-03-28T01:09:59.072Z,994.91
2018-03-28T01:10:39.525Z,994.95
2018-03-28T01:11:20.102Z,994.94
2018-03-28T01:12:00.529Z,994.97
2018-03-28T01:12:41.048Z,994.96
2018-03-28T01:13:21.581Z,994.93
2018-03-28T01:14:02.025Z,994.97
2018-03-28T01:14:42.544Z,994.92
2018-03-28T01:15:23.053Z,994.88
2018-03-28T01:16:03.515Z,994.91
2018-03-28T01:16:44.034Z,994.89
2018-03-28T01:17:24.501Z,994.93
2018-03-28T01:18:04.975Z,994.89
2018-03-28T01:18:45.508Z,994.9
2018-03-28T01:19:26.020Z,994.9
2018-03-28T01:20:06.539Z,994.89
2018-03-28T01:20:46.989Z,994.85
2018-03-28T01:21:27.495Z,994.92
2018-03-28T01:22:07.956Z,994.93
2018-03-28T01:22:48.466Z,994.88
2018-03-28T01:23:29.035Z,994.88
2018-03-28T01:24:09.454Z,994.88
2018-03-28T01:24:49.937Z,994.87
2018-03-28T01:25:30.457Z,994.91
2018-03-28T01:26:10.955Z,994.91
2018-03-28T01:26:51.423Z,994.94
2018-03-28T01:27:31.950Z,994.89
2018-03-28T01:28:12.453Z,994.84
2018-03-28T01:28:52.891Z,994.9
2018-03-28T01:29:33.374Z,994.92
2018-03-28T01:30:13.866Z,994.9
2018-03-28T01:30:54.377Z,994.91
2018-03-28T01:31:34.868Z,994.89
2018-03-28T01:32:15.379Z,994.88
2018-03-28T01:32:55.886Z,994.94
2018-03-28T01:33:36.366Z,994.89
2018-03-28T01:34:16.828Z,994.85
2018-03-28T01:34:57.291Z,994.9
2018-03-28T01:35:37.776Z,994.9
2018-03-28T01:36:18.278Z,994.81
2018-03-28T01:36:58.740Z,994.88
2018-03-28T01:37:39.200Z,994.87
2018-03-28T01:38:19.697Z,994.89
2018-03-28T01:39:00.242Z,994.89
2018-03-28T01:39:40.679Z,994.86
2018-03-28T01:40:21.175Z,994.85
2018-03-28T01:41:01.684Z,994.82
2018-03-28T01:41:42.187Z,994.81
2018-03-28T01:42:22.675Z,994.8
2018-03-28T01:43:03.200Z,994.87
2018-03-28T01:43:43.676Z,994.84
2018-03-28T01:44:24.223Z,994.86
2018-03-28T01:45:04.742Z,994.88
2018-03-28T01:45:45.208Z,994.83
2018-03-28T01:46:25.683Z,994.86
2018-03-28T01:47:06.194Z,994.84
2018-03-28T01:47:46.664Z,994.85
2018-03-28T01:48:27.146Z,994.8
2018-03-28T01:49:07.596Z,994.79
2018-03-28T01:49:48.094Z,994.78
2018-03-28T01:50:28.558Z,994.79
2018-03-28T01:51:09.140Z,994.8
2018-03-28T01:51:49.548Z,994.79
2018-03-28T01:52:30.054Z,994.77
2018-03-28T01:53:10.515Z,994.79
2018-03-28T01:53:51.018Z,994.82
2018-03-28T01:54:31.520Z,994.79
2018-03-28T01:55:11.949Z,994.81
2018-03-28T01:55:52.477Z,994.78
2018-03-28T01:56:32.958Z,994.72
2018-03-28T01:57:13.714Z,994.81
2018-03-28T01:57:53.965Z,994.76
2018-03-28T01:58:34.391Z,994.7
2018-03-28T01:59:14.892Z,994.71
2018-03-28T01:59:55.387Z,994.73
2018-03-28T02:00:35.903Z,994.73
2018-03-28T02:01:16.374Z,994.76
2018-03-28T02:01:57.047Z,994.72
2018-03-28T02:02:37.570Z,994.68
2018-03-28T02:03:18.018Z,994.68
2018-03-28T02:03:58.528Z,994.72
2018-03-28T02:04:39.037Z,994.72
2018-03-28T02:05:19.526Z,994.72
2018-03-28T02:06:00.024Z,994.71
2018-03-28T02:06:40.516Z,994.71
2018-03-28T02:07:21.002Z,994.69
2018-03-28T02:08:01.531Z,994.71
2018-03-28T02:08:42.031Z,994.7
2018-03-28T02:09:22.499Z,994.76
2018-03-28T02:10:03.027Z,994.65
2018-03-28T02:10:43.474Z,994.7
2018-03-28T02:11:23.940Z,994.71
2018-03-28T02:12:04.444Z,994.72
2018-03-28T02:12:44.950Z,994.72
2018-03-28T02:13:25.409Z,994.75
2018-03-28T02:14:05.886Z,994.77
2018-03-28T02:14:46.387Z,994.74
2018-03-28T02:15:26.902Z,994.75
2018-03-28T02:16:07.327Z,994.72
2018-03-28T02:16:47.837Z,994.7
2018-03-28T02:17:28.313Z,994.71
2018-03-28T02:18:08.818Z,994.69
2018-03-28T02:18:49.374Z,994.71
2018-03-28T02:19:29.823Z,994.72
2018-03-28T02:20:10.304Z,994.72
2018-03-28T02:20:50.763Z,994.73
2018-03-28T02:21:31.243Z,994.68
2018-03-28T02:22:11.735Z,994.74
2018-03-28T02:22:52.269Z,994.68
2018-03-28T02:23:32.719Z,994.67
2018-03-28T02:24:13.198Z,994.66
2018-03-28T02:24:53.713Z,994.63
2018-03-28T02:25:34.167Z,994.64
2018-03-28T02:26:14.671Z,994.64
2018-03-28T02:26:55.176Z,994.64
2018-03-28T02:27:35.645Z,994.67
2018-03-28T02:28:16.151Z,994.69
2018-03-28T02:28:56.630Z,994.7
2018-03-28T02:29:37.135Z,994.72
2018-03-28T02:30:17.639Z,994.7
2018-03-28T02:32:17.657Z,994.67
2018-03-28T02:32:58.177Z,994.66
2018-03-28T02:33:38.697Z,994.6
2018-03-28T02:34:19.219Z,994.65
2018-03-28T02:34:59.741Z,994.7
2018-03-28T02:35:40.257Z,994.65
2018-03-28T02:36:20.771Z,994.69
2018-03-28T02:37:01.294Z,994.68
2018-03-28T02:37:41.798Z,994.65
2018-03-28T02:38:22.317Z,994.62
2018-03-28T02:39:02.822Z,994.69
2018-03-28T02:39:43.322Z,994.65
2018-03-28T02:40:23.842Z,994.62
2018-03-28T02:41:04.351Z,994.61
2018-03-28T02:41:44.876Z,994.61
2018-03-28T02:42:25.381Z,994.62
2018-03-28T02:43:05.890Z,994.68
2018-03-28T02:43:46.438Z,994.66
2018-03-28T02:44:26.951Z,994.68
2018-03-28T02:45:07.448Z,994.62
2018-03-28T02:45:47.960Z,994.71
2018-03-28T02:46:28.478Z,994.7
2018-03-28T02:47:08.984Z,994.67
2018-03-28T02:47:49.541Z,994.58
2018-03-28T02:48:30.064Z,994.61
2018-03-28T02:49:10.577Z,994.61
2018-03-28T02:49:51.089Z,994.58
2018-03-28T02:50:31.602Z,994.57
2018-03-28T02:51:12.115Z,994.66
2018-03-28T02:51:52.627Z,994.66
2018-03-28T02:52:33.147Z,994.62
2018-03-28T02:53:13.680Z,994.59
2018-03-28T02:53:54.195Z,994.58
2018-03-28T02:54:34.714Z,994.59
2018-03-28T02:55:15.229Z,994.58
2018-03-28T02:55:55.747Z,994.62
2018-03-28T02:56:36.260Z,994.6
2018-03-28T02:57:16.761Z,994.63
2018-03-28T02:57:57.276Z,994.67
2018-03-28T02:58:37.796Z,994.62
2018-03-28T02:59:18.312Z,994.66
2018-03-28T02:59:58.829Z,994.65
2018-03-28T03:00:39.387Z,994.66
2018-03-28T03:01:19.935Z,994.69
2018-03-28T03:02:00.436Z,994.59
2018-03-28T03:02:41.024Z,994.61
2018-03-28T03:03:21.542Z,994.65
2018-03-28T03:04:02.051Z,994.72
2018-03-28T03:04:42.598Z,994.68
2018-03-28T03:05:23.098Z,994.66
2018-03-28T03:06:03.622Z,994.66
2018-03-28T03:06:44.154Z,994.7
2018-03-28T03:07:24.672Z,994.72
2018-03-28T03:08:05.196Z,994.69
2018-03-28T03:08:45.719Z,994.69
2018-03-28T03:09:26.235Z,994.68
2018-03-28T03:10:06.750Z,994.73
2018-03-28T03:10:47.270Z,994.73
2018-03-28T03:11:27.775Z,994.74
2018-03-28T03:12:08.283Z,994.71
2018-03-28T03:12:48.795Z,994.74
2018-03-28T03:13:29.324Z,994.71
2018-03-28T03:14:09.837Z,994.68
2018-03-28T03:14:50.354Z,994.74
2018-03-28T03:15:30.869Z,994.73
2018-03-28T03:16:11.391Z,994.7
2018-03-28T03:16:51.907Z,994.73
2018-03-28T03:17:32.422Z,994.68
2018-03-28T03:18:12.949Z,994.72
2018-03-28T03:18:53.457Z,994.78
2018-03-28T03:19:33.971Z,994.75
2018-03-28T03:20:14.493Z,994.75
2018-03-28T03:20:55.006Z,994.76
2018-03-28T03:21:35.504Z,994.72
2018-03-28T03:22:16.020Z,994.77
2018-03-28T03:22:56.542Z,994.72
2018-03-28T03:23:37.055Z,994.76
2018-03-28T03:24:17.565Z,994.72
2018-03-28T03:24:58.070Z,994.78
2018-03-28T03:25:38.593Z,994.75
2018-03-28T03:26:19.101Z,994.81
2018-03-28T03:26:59.623Z,994.72
2018-03-28T03:27:40.131Z,994.87
2018-03-28T03:28:20.642Z,994.81
2018-03-28T03:29:01.160Z,994.77
2018-03-28T03:29:41.692Z,994.79
2018-03-28T03:30:22.201Z,994.77
2018-03-28T03:31:02.721Z,994.82
2018-03-28T03:31:43.232Z,994.82
2018-03-28T03:32:23.736Z,994.82
2018-03-28T03:33:04.258Z,994.79
2018-03-28T03:33:44.780Z,994.8
2018-03-28T03:34:25.382Z,994.82
2018-03-28T03:35:05.861Z,994.77
2018-03-28T03:35:46.398Z,994.88
2018-03-28T03:36:27.006Z,994.87
2018-03-28T03:37:07.485Z,994.87
2018-03-28T03:37:47.932Z,994.9
2018-03-28T03:38:28.444Z,994.9
2018-03-28T03:39:08.964Z,994.91
2018-03-28T03:39:49.481Z,994.9
2018-03-28T03:40:29.982Z,994.89
2018-03-28T03:41:10.608Z,994.9
2018-03-28T03:41:51.124Z,994.87
2018-03-28T03:42:31.640Z,994.91
2018-03-28T03:43:12.168Z,994.94
2018-03-28T03:43:52.670Z,994.93
2018-03-28T03:44:33.188Z,994.91
2018-03-28T03:45:13.700Z,994.93
2018-03-28T03:45:54.216Z,994.88
2018-03-28T03:46:34.733Z,994.92
2018-03-28T03:47:15.259Z,994.93
2018-03-28T03:47:55.812Z,994.85
2018-03-28T03:48:36.343Z,994.88
2018-03-28T03:49:16.848Z,994.85
2018-03-28T03:49:57.453Z,994.89
2018-03-28T03:50:37.971Z,994.84
2018-03-28T03:51:18.473Z,994.8
2018-03-28T03:51:58.972Z,994.85
2018-03-28T03:52:39.492Z,994.86
2018-03-28T03:53:20.017Z,994.88
2018-03-28T03:54:00.528Z,994.92
2018-03-28T03:54:41.046Z,994.9
2018-03-28T03:55:21.548Z,994.9
2018-03-28T03:56:02.070Z,994.85
2018-03-28T03:56:42.591Z,994.9
2018-03-28T03:57:23.119Z,994.88
2018-03-28T03:58:03.635Z,994.85
2018-03-28T03:58:44.154Z,994.87
2018-03-28T03:59:24.672Z,994.88
2018-03-28T04:00:05.187Z,994.87
2018-03-28T04:00:45.689Z,994.93
2018-03-28T04:01:26.250Z,994.9
2018-03-28T04:02:06.729Z,994.92
2018-03-28T04:02:47.250Z,994.96
2018-03-28T04:03:27.769Z,994.94
2018-03-28T04:04:08.292Z,994.95
2018-03-28T04:04:48.813Z,994.97
2018-03-28T04:05:29.325Z,995
2018-03-28T04:06:09.835Z,994.98
2018-03-28T04:06:50.349Z,994.96
2018-03-28T04:07:30.888Z,995
2018-03-28T04:08:11.414Z,995.04
2018-03-28T04:08:51.929Z,995
2018-03-28T04:09:32.466Z,994.99
2018-03-28T04:10:12.999Z,995.01
2018-03-28T04:10:53.518Z,994.96
2018-03-28T04:11:34.037Z,995.01
2018-03-28T04:12:14.556Z,995
2018-03-28T04:12:55.082Z,994.99
2018-03-28T04:13:35.588Z,995
2018-03-28T04:14:16.109Z,994.94
2018-03-28T04:14:56.615Z,994.92
2018-03-28T04:15:37.143Z,994.93
2018-03-28T04:16:17.662Z,994.96
2018-03-28T04:16:58.176Z,994.92
2018-03-28T04:17:38.687Z,994.95
2018-03-28T04:18:19.198Z,994.92
2018-03-28T04:18:59.717Z,994.91
2018-03-28T04:19:40.228Z,994.93
2018-03-28T04:20:20.740Z,994.93
2018-03-28T04:21:01.263Z,994.93
2018-03-28T04:21:41.788Z,994.97
2018-03-28T04:22:22.314Z,994.98
2018-03-28T04:23:02.834Z,994.94
2018-03-28T04:23:43.358Z,994.92
2018-03-28T04:24:23.874Z,994.92
2018-03-28T04:25:04.390Z,994.96
2018-03-28T04:25:44.914Z,994.94
2018-03-28T04:26:25.441Z,994.95
2018-03-28T04:27:05.968Z,995
2018-03-28T04:27:46.469Z,995.05
2018-03-28T04:28:26.968Z,995.01
2018-03-28T04:29:07.521Z,995.03
2018-03-28T04:29:48.036Z,995.02
2018-03-28T04:30:28.578Z,995.03
2018-03-28T04:31:09.096Z,995.06
2018-03-28T04:31:49.607Z,995.05
2018-03-28T04:32:30.122Z,995.12
2018-03-28T04:33:10.672Z,995.13
2018-03-28T04:33:51.185Z,995.07
2018-03-28T04:34:31.705Z,995.12
2018-03-28T04:35:12.218Z,995.13
2018-03-28T04:35:52.743Z,995.11
2018-03-28T04:36:33.294Z,995.09
2018-03-28T04:37:13.783Z,995.16
2018-03-28T04:37:54.310Z,995.15
2018-03-28T04:38:34.829Z,995.12
2018-03-28T04:39:15.340Z,995.14
2018-03-28T04:39:55.857Z,995.18
2018-03-28T04:40:36.380Z,995.1
2018-03-28T04:41:16.906Z,995.11
2018-03-28T04:41:57.434Z,995.06
2018-03-28T04:42:37.958Z,995.09
2018-03-28T04:43:18.466Z,995.09
2018-03-28T04:43:58.999Z,995.08
2018-03-28T04:44:39.513Z,995.11
2018-03-28T04:45:20.032Z,995.09
2018-03-28T04:46:00.545Z,995.07
2018-03-28T04:46:41.060Z,995.1
2018-03-28T04:47:21.591Z,995.05
2018-03-28T04:48:02.138Z,995.13
2018-03-28T04:48:42.630Z,995.11
2018-03-28T04:49:23.149Z,995.14
2018-03-28T04:50:03.654Z,995.15
2018-03-28T04:50:44.167Z,995.09
2018-03-28T04:51:24.716Z,995.11
2018-03-28T04:52:05.208Z,995.13
2018-03-28T04:52:45.711Z,995.11
2018-03-28T04:53:26.235Z,995.15
2018-03-28T04:54:06.763Z,995.13
2018-03-28T04:54:47.277Z,995.11
2018-03-28T04:55:27.808Z,995.16
2018-03-28T04:56:08.355Z,995.15
2018-03-28T04:56:48.865Z,995.12
2018-03-28T04:57:29.390Z,995.12
2018-03-28T04:58:09.912Z,995.16
2018-03-28T04:58:50.429Z,995.12
2018-03-28T04:59:30.932Z,995.12
2018-03-28T05:00:11.531Z,995.19
2018-03-28T05:00:52.030Z,995.14
2018-03-28T05:01:32.573Z,995.17
2018-03-28T05:02:13.099Z,995.11
2018-03-28T05:02:53.613Z,995.14
2018-03-28T05:03:34.153Z,995.08
2018-03-28T05:04:14.810Z,995.17
2018-03-28T05:04:55.197Z,995.17
2018-03-28T05:05:35.709Z,995.21
2018-03-28T05:06:16.249Z,995.12
2018-03-28T05:06:56.811Z,995.21
2018-03-28T05:07:37.325Z,995.21
2018-03-28T05:08:17.821Z,995.17
2018-03-28T05:08:58.369Z,995.24
2018-03-28T05:09:38.943Z,995.2
2018-03-28T05:10:19.409Z,995.12
2018-03-28T05:10:59.890Z,995.22
2018-03-28T05:11:40.419Z,995.2
2018-03-28T05:12:20.927Z,995.21
2018-03-28T05:13:01.471Z,995.24
2018-03-28T05:13:41.951Z,995.24
2018-03-28T05:14:22.459Z,995.22
2018-03-28T05:15:02.988Z,995.19
2018-03-28T05:15:43.495Z,995.15
2018-03-28T05:16:23.982Z,995.19
2018-03-28T05:17:04.564Z,995.19
2018-03-28T05:17:45.084Z,995.13
2018-03-28T05:18:25.606Z,995.19
2018-03-28T05:19:06.124Z,995.18
2018-03-28T05:19:46.648Z,995.15
2018-03-28T05:20:27.154Z,995.15
2018-03-28T05:21:07.655Z,995.14
2018-03-28T05:21:48.187Z,995.2
2018-03-28T05:22:28.824Z,995.17
2018-03-28T05:23:09.264Z,995.19
2018-03-28T05:23:49.805Z,995.18
2018-03-28T05:26:03.118Z,995.19
2018-03-28T05:26:43.638Z,995.2
2018-03-28T05:27:24.155Z,995.17
2018-03-28T05:28:04.732Z,995.18
2018-03-28T05:28:45.249Z,995.07
2018-03-28T05:29:25.762Z,995.14
2018-03-28T05:30:06.322Z,995.1
2018-03-28T05:30:46.786Z,995.06
2018-03-28T05:31:27.308Z,995.05
2018-03-28T05:32:07.829Z,995.05
2018-03-28T05:32:48.446Z,995.05
2018-03-28T05:33:28.951Z,995.08
2018-03-28T05:34:09.478Z,995.04
2018-03-28T05:34:50.021Z,995.03
2018-03-28T05:35:31.105Z,995.03
2018-03-28T05:36:11.672Z,995.1
2018-03-28T05:36:52.151Z,995.06
2018-03-28T05:37:32.659Z,995.04
2018-03-28T05:38:13.170Z,995.05
2018-03-28T05:38:53.704Z,995.04
2018-03-28T05:39:34.190Z,995.11
2018-03-28T05:40:14.711Z,995.06
2018-03-28T05:40:55.216Z,995.05
2018-03-28T05:41:35.721Z,995.12
2018-03-28T05:42:16.237Z,995.05
2018-03-28T05:42:56.759Z,995.08
2018-03-28T05:43:37.264Z,995.09
2018-03-28T05:44:17.786Z,995.11
2018-03-28T05:44:58.322Z,995.11
2018-03-28T05:45:38.846Z,995.09
2018-03-28T05:46:19.355Z,995.05
2018-03-28T05:46:59.971Z,995.04
2018-03-28T05:47:40.647Z,995.05
2018-03-28T05:48:21.380Z,994.99
2018-03-28T05:49:01.851Z,995.1
2018-03-28T05:49:42.377Z,995.08
2018-03-28T05:50:22.953Z,995.04
2018-03-28T05:51:03.447Z,995.03
2018-03-28T05:51:43.952Z,995.12
2018-03-28T05:52:24.439Z,995.07
2018-03-28T05:53:04.987Z,995.1
2018-03-28T05:53:45.533Z,995.07
2018-03-28T05:54:26.009Z,995.03
2018-03-28T05:55:06.675Z,995.11
2018-03-28T05:55:48.360Z,995.08
2018-03-28T05:56:29.286Z,995.07
2018-03-28T05:57:09.454Z,995.07
2018-03-28T05:57:49.946Z,995.07
2018-03-28T05:58:30.479Z,995.09
2018-03-28T05:59:10.946Z,995
2018-03-28T05:59:51.503Z,995.07
2018-03-28T06:00:31.945Z,995.08
2018-03-28T06:01:12.466Z,995.07
2018-03-28T06:01:52.960Z,995.06
2018-03-28T06:02:33.420Z,994.99
2018-03-28T06:03:13.905Z,995.04
2018-03-28T06:03:54.426Z,995.11
2018-03-28T06:04:34.886Z,995.14
2018-03-28T06:05:15.368Z,995.13
2018-03-28T06:05:55.903Z,995.1
2018-03-28T06:06:36.383Z,995.03
2018-03-28T06:07:16.826Z,995.07
2018-03-28T06:07:57.358Z,995.05
2018-03-28T06:08:37.865Z,995.05
2018-03-28T06:09:18.369Z,995.01
2018-03-28T06:09:58.842Z,994.98
2018-03-28T06:10:39.325Z,995.02
2018-03-28T06:11:19.771Z,994.96
2018-03-28T06:12:00.295Z,994.99
2018-03-28T06:12:40.796Z,995
2018-03-28T06:13:21.295Z,995.01
2018-03-28T06:14:01.832Z,995.05
2018-03-28T06:14:42.316Z,995.07
2018-03-28T06:15:22.765Z,995.1
2018-03-28T06:16:03.226Z,995.11
2018-03-28T06:16:43.778Z,995.07
2018-03-28T06:17:24.228Z,995.08
2018-03-28T06:18:04.714Z,995.06
2018-03-28T06:18:45.188Z,995.05
2018-03-28T06:19:25.673Z,995.02
2018-03-28T06:20:06.314Z,995.03
2018-03-28T06:20:46.788Z,995.08
2018-03-28T06:21:27.277Z,995.05
2018-03-28T06:22:07.887Z,995.07
2018-03-28T06:22:48.420Z,995.08
2018-03-28T06:23:28.929Z,995.08
2018-03-28T06:24:09.360Z,995.11
2018-03-28T06:24:49.859Z,995.09
2018-03-28T06:25:30.351Z,995.12
2018-03-28T06:26:10.865Z,995.07
2018-03-28T06:26:51.339Z,995.14
2018-03-28T06:27:31.860Z,995.13
2018-03-28T06:28:12.371Z,995.1
2018-03-28T06:28:52.884Z,995.04
2018-03-28T06:29:33.396Z,995.04
2018-03-28T06:30:13.926Z,995.04
2018-03-28T06:30:54.442Z,995.08
2018-03-28T06:31:34.939Z,994.98
2018-03-28T06:32:15.459Z,995.02
2018-03-28T06:32:55.986Z,995.04
2018-03-28T06:33:36.511Z,995.02
2018-03-28T06:34:17.020Z,995.02
2018-03-28T06:34:57.529Z,995.07
2018-03-28T06:35:38.061Z,995.08
2018-03-28T06:36:18.572Z,995.03
2018-03-28T06:36:59.082Z,995.1
2018-03-28T06:37:39.603Z,995.12
2018-03-28T06:38:20.117Z,995.13
2018-03-28T06:39:00.629Z,995.13
2018-03-28T06:39:41.141Z,995.13
2018-03-28T06:40:21.658Z,995.06
2018-03-28T06:41:02.185Z,995.02
2018-03-28T06:41:42.666Z,995.03
2018-03-28T06:42:23.166Z,995.09
2018-03-28T06:43:03.654Z,995.01
2018-03-28T06:43:44.148Z,994.96
2018-03-28T06:44:24.646Z,995.01
2018-03-28T06:45:05.140Z,994.99
2018-03-28T06:45:45.620Z,995.06
2018-03-28T06:46:26.099Z,995.06
2018-03-28T06:47:06.648Z,995.08
2018-03-28T06:47:47.191Z,995.09
2018-03-28T06:48:27.709Z,995.08
2018-03-28T06:49:08.239Z,995.11
2018-03-28T06:49:48.731Z,995.1
2018-03-28T06:50:29.282Z,995.08
2018-03-28T06:51:09.797Z,995.05
2018-03-28T06:51:50.301Z,995.07
2018-03-28T06:52:30.815Z,995.02
2018-03-28T06:53:11.312Z,994.97
2018-03-28T06:53:51.854Z,995.05
2018-03-28T06:54:32.316Z,995
2018-03-28T06:55:12.861Z,995.05
2018-03-28T06:55:53.487Z,995.03
2018-03-28T06:56:33.994Z,995.06
2018-03-28T06:57:14.433Z,995.01
2018-03-28T06:57:54.995Z,995.12
2018-03-28T06:58:35.461Z,995.05
2018-03-28T06:59:15.931Z,994.99
2018-03-28T06:59:56.427Z,995.04
2018-03-28T07:00:36.942Z,995.06
2018-03-28T07:01:17.406Z,995.03
2018-03-28T07:01:57.931Z,995
2018-03-28T07:02:38.392Z,994.98
2018-03-28T07:03:18.876Z,995.04
2018-03-28T07:03:59.393Z,995.03
2018-03-28T07:04:39.874Z,995.08
2018-03-28T07:05:20.307Z,995.02
2018-03-28T07:06:00.859Z,995.04
2018-03-28T07:06:41.324Z,995.07
2018-03-28T07:07:21.795Z,995.03
2018-03-28T07:08:02.390Z,995.03
2018-03-28T07:08:42.884Z,995.02
2018-03-28T07:09:23.410Z,995.03
2018-03-28T07:10:04.011Z,995.11
2018-03-28T07:10:44.414Z,995.1
2018-03-28T07:11:24.958Z,995.08
2018-03-28T07:12:05.437Z,995.12
2018-03-28T07:12:45.925Z,995.08
2018-03-28T07:13:26.526Z,995.12
2018-03-28T07:14:07.107Z,995.16
2018-03-28T07:14:47.594Z,995.19
2018-03-28T07:15:28.106Z,995.15
2018-03-28T07:16:08.571Z,995.21
2018-03-28T07:16:49.173Z,995.22
2018-03-28T07:17:29.621Z,995.21
2018-03-28T07:18:10.075Z,995.19
2018-03-28T07:18:50.593Z,995.24
2018-03-28T07:19:31.106Z,995.19
2018-03-28T07:20:11.537Z,995.2
2018-03-28T07:20:52.040Z,995.21
2018-03-28T07:21:32.540Z,995.18
2018-03-28T07:22:13.082Z,995.2
2018-03-28T07:22:53.534Z,995.2
2018-03-28T07:23:34.158Z,995.19
2018-03-28T07:24:14.578Z,995.22
2018-03-28T07:24:55.135Z,995.21
2018-03-28T07:25:35.616Z,995.24
2018-03-28T07:26:16.106Z,995.21
2018-03-28T07:26:56.692Z,995.19
2018-03-28T07:27:37.249Z,995.17
2018-03-28T07:28:17.776Z,995.15
2018-03-28T07:28:58.304Z,995.14
2018-03-28T07:29:38.849Z,995.2
2018-03-28T07:30:19.330Z,995.21
2018-03-28T07:30:59.868Z,995.19
2018-03-28T07:31:40.420Z,995.18
2018-03-28T07:32:21.114Z,995.14
2018-03-28T07:33:01.540Z,995.21
2018-03-28T07:33:42.146Z,995.2
2018-03-28T07:34:22.682Z,995.16
2018-03-28T07:35:03.074Z,995.11
2018-03-28T07:35:43.621Z,995.15
2018-03-28T07:36:24.142Z,995.09
2018-03-28T07:37:04.655Z,995.21
2018-03-28T07:37:45.106Z,995.13
2018-03-28T07:38:25.586Z,995.15
2018-03-28T07:39:06.078Z,995.14
2018-03-28T07:39:46.647Z,995.18
2018-03-28T07:40:27.182Z,995.16
2018-03-28T07:41:07.626Z,995.19
2018-03-28T07:41:48.253Z,995.15
2018-03-28T07:42:28.714Z,995.11
2018-03-28T07:43:09.197Z,995.18
2018-03-28T07:43:49.750Z,995.16
2018-03-28T07:44:30.408Z,995.16
2018-03-28T07:45:10.907Z,995.13
2018-03-28T07:45:51.389Z,995.13
2018-03-28T07:46:31.866Z,995.14
2018-03-28T07:47:12.349Z,995.19
2018-03-28T07:47:52.909Z,995.14
2018-03-28T07:48:33.366Z,995.15
2018-03-28T07:49:13.852Z,995.15
2018-03-28T07:49:54.355Z,995.2
2018-03-28T07:50:34.825Z,995.18
2018-03-28T07:51:15.348Z,995.19
2018-03-28T07:51:55.846Z,995.19
2018-03-28T07:52:36.409Z,995.23
2018-03-28T07:53:16.860Z,995.22
2018-03-28T07:53:57.337Z,995.22
2018-03-28T07:54:37.846Z,995.18
2018-03-28T07:55:18.332Z,995.17
2018-03-28T07:55:58.863Z,995.24
2018-03-28T07:56:39.359Z,995.19
2018-03-28T07:57:20.052Z,995.15
2018-03-28T07:58:00.563Z,995.2
2018-03-28T07:58:41.147Z,995.18
2018-03-28T07:59:21.663Z,995.13
2018-03-28T08:00:02.133Z,995.12
2018-03-28T08:00:42.665Z,995.14
2018-03-28T08:01:23.074Z,995.16
2018-03-28T08:02:03.573Z,995.19
2018-03-28T08:02:44.071Z,995.12
2018-03-28T08:03:24.625Z,995.15
2018-03-28T08:04:05.135Z,995.13
2018-03-28T08:04:45.623Z,995.04
2018-03-28T08:05:26.260Z,995.13
2018-03-28T08:06:06.884Z,995.16
2018-03-28T08:06:47.356Z,995.2
2018-03-28T08:07:27.918Z,995.15
2018-03-28T08:08:08.348Z,995.11
2018-03-28T08:08:48.945Z,995.16
2018-03-28T08:09:29.392Z,995.15
2018-03-28T08:10:09.877Z,995.19
2018-03-28T08:10:50.393Z,995.19
2018-03-28T08:11:30.994Z,995.16
2018-03-28T08:12:11.659Z,995.14
2018-03-28T08:12:52.279Z,995.14
2018-03-28T08:13:33.020Z,995.1
2018-03-28T08:14:13.797Z,995.09
2018-03-28T08:14:54.278Z,995.14
2018-03-28T08:15:34.780Z,995.11
2018-03-28T08:16:15.276Z,995.1
2018-03-28T08:16:55.829Z,995.06
2018-03-28T08:17:36.338Z,995.06
2018-03-28T08:18:16.873Z,994.98
2018-03-28T08:18:57.340Z,995.04
2018-03-28T08:19:37.870Z,995.03
2018-03-28T08:20:18.325Z,995.04
2018-03-28T08:20:58.961Z,995.01
2018-03-28T08:21:39.550Z,995
2018-03-28T08:22:20.071Z,995.02
2018-03-28T08:23:00.633Z,995.02
2018-03-28T08:23:41.193Z,994.96
2018-03-28T08:24:21.721Z,994.96
2018-03-28T08:25:02.289Z,994.95
2018-03-28T08:25:42.783Z,994.96
2018-03-28T08:26:23.260Z,995.03
2018-03-28T08:27:03.718Z,994.96
2018-03-28T08:27:44.205Z,994.99
2018-03-28T08:28:24.686Z,995.06
2018-03-28T08:29:05.306Z,995.07
2018-03-28T08:29:45.877Z,994.99
2018-03-28T08:30:26.362Z,995.03